KHRL/HRL METAR and TAF weather

Enter ICAO airport designator
Station Type Date Time Source
KHRL METAR 2019/08/21 21:52 UTC NOAA

KHRL 212152Z 11017G23KT 10SM -RA CLR 35/22 A2989 RMK AO2 LTG DSNT NW SLP120 P0000 T03500222


Station Type Date Time Source
KHRL Decoded METAR 2019/08/21 21:52 UTC NOAA

Station name not available
Aug 21, 2019 - 05:52 PM EDT / 2019.08.21 2152 UTC
Wind: from the ESE (110 degrees) at 20 MPH (17 KT) gusting to 26 MPH (23 KT):0
Visibility: 10 mile(s):0
Sky conditions: clear
Weather: light rain; Lightning observed
Precipitation last hour: A trace
Temperature: 95.0 F (35.0 C)
Heat index: 103.1 F (39.5 C):1
Dew Point: 72.0 F (22.2 C)
Relative Humidity: 47%
Pressure (altimeter): 29.89 in. Hg (1012 hPa)
ob: KHRL 212152Z 11017G23KT 10SM -RA CLR 35/22 A2989 RMK AO2 LTG DSNT NW SLP120 P0000 T03500222
cycle: 22

Station Type Date Time Source
KHRL TAF 2019/08/21 18:22 UTC NOAA

TAF KHRL 211720Z 2118/2218 12014G20KT P6SM BKN050
FM211930 11012KT P6SM FEW035 SCT050
FM220200 13005KT P6SM FEW025
FM221500 14007KT P6SM SCT030 BKN050
FM221700 11010G15KT P6SM SCT035 SCT050

Example: see airport list